sensor_id;sensor_type;location;lat;lon;timestamp;P1;durP1;ratioP1;P2;durP2;ratioP2
22603;SDS011;11469;49.024;8.246;2023-04-01T00:00:31;6.38;;;1.00;;
22603;SDS011;11469;49.024;8.246;2023-04-01T00:02:57;5.95;;;1.35;;
22603;SDS011;11469;49.024;8.246;2023-04-01T00:05:22;5.03;;;0.70;;
22603;SDS011;11469;49.024;8.246;2023-04-01T00:07:49;8.02;;;1.40;;
22603;SDS011;11469;49.024;8.246;2023-04-01T00:10:15;6.60;;;1.30;;
22603;SDS011;11469;49.024;8.246;2023-04-01T00:12:41;4.15;;;1.38;;
22603;SDS011;11469;49.024;8.246;2023-04-01T00:15:07;7.50;;;1.50;;
22603;SDS011;11469;49.024;8.246;2023-04-01T00:17:35;5.90;;;1.20;;
22603;SDS011;11469;49.024;8.246;2023-04-01T00:20:00;6.00;;;1.30;;
22603;SDS011;11469;49.024;8.246;2023-04-01T00:22:26;7.60;;;0.98;;
22603;SDS011;11469;49.024;8.246;2023-04-01T00:24:52;4.57;;;1.23;;
22603;SDS011;11469;49.024;8.246;2023-04-01T00:27:17;10.05;;;1.73;;
22603;SDS011;11469;49.024;8.246;2023-04-01T00:29:44;6.43;;;1.20;;
22603;SDS011;11469;49.024;8.246;2023-04-01T00:32:10;5.65;;;1.33;;
22603;SDS011;11469;49.024;8.246;2023-04-01T00:34:36;4.68;;;1.25;;
22603;SDS011;11469;49.024;8.246;2023-04-01T00:37:02;4.20;;;0.90;;
22603;SDS011;11469;49.024;8.246;2023-04-01T00:39:29;10.25;;;1.95;;
22603;SDS011;11469;49.024;8.246;2023-04-01T00:41:56;10.07;;;1.30;;
22603;SDS011;11469;49.024;8.246;2023-04-01T00:44:26;10.18;;;1.20;;
22603;SDS011;11469;49.024;8.246;2023-04-01T00:46:53;4.88;;;1.00;;
22603;SDS011;11469;49.024;8.246;2023-04-01T00:49:19;4.38;;;1.10;;
22603;SDS011;11469;49.024;8.246;2023-04-01T00:51:48;5.03;;;0.93;;
22603;SDS011;11469;49.024;8.246;2023-04-01T00:54:17;8.32;;;1.45;;
22603;SDS011;11469;49.024;8.246;2023-04-01T00:56:50;7.25;;;1.45;;
22603;SDS011;11469;49.024;8.246;2023-04-01T00:59:31;5.88;;;0.90;;
22603;SDS011;11469;49.024;8.246;2023-04-01T01:02:05;8.57;;;1.38;;
22603;SDS011;11469;49.024;8.246;2023-04-01T01:04:34;9.35;;;2.22;;
22603;SDS011;11469;49.024;8.246;2023-04-01T01:15:23;8.27;;;1.02;;
22603;SDS011;11469;49.024;8.246;2023-04-01T01:18:03;8.95;;;1.58;;
22603;SDS011;11469;49.024;8.246;2023-04-01T01:32:18;9.38;;;1.20;;
22603;SDS011;11469;49.024;8.246;2023-04-01T01:37:35;4.18;;;1.10;;
22603;SDS011;11469;49.024;8.246;2023-04-01T01:40:05;6.13;;;0.80;;
22603;SDS011;11469;49.024;8.246;2023-04-01T01:42:33;11.48;;;1.58;;
22603;SDS011;11469;49.024;8.246;2023-04-01T01:45:02;5.90;;;0.80;;
22603;SDS011;11469;49.024;8.246;2023-04-01T01:47:30;5.95;;;1.00;;
22603;SDS011;11469;49.024;8.246;2023-04-01T01:49:58;5.75;;;1.33;;
22603;SDS011;11469;49.024;8.246;2023-04-01T01:52:27;6.68;;;1.25;;
22603;SDS011;11469;49.024;8.246;2023-04-01T01:54:54;8.77;;;1.75;;
22603;SDS011;11469;49.024;8.246;2023-04-01T01:57:25;7.20;;;1.17;;
22603;SDS011;11469;49.024;8.246;2023-04-01T01:59:58;8.50;;;1.02;;
22603;SDS011;11469;49.024;8.246;2023-04-01T02:02:33;9.45;;;0.90;;
22603;SDS011;11469;49.024;8.246;2023-04-01T02:04:58;8.07;;;0.98;;
22603;SDS011;11469;49.024;8.246;2023-04-01T02:07:26;5.32;;;1.08;;
22603;SDS011;11469;49.024;8.246;2023-04-01T02:09:56;2.75;;;0.63;;
22603;SDS011;11469;49.024;8.246;2023-04-01T02:12:21;4.28;;;0.60;;
22603;SDS011;11469;49.024;8.246;2023-04-01T02:14:51;3.22;;;0.50;;
22603;SDS011;11469;49.024;8.246;2023-04-01T02:17:21;2.63;;;0.70;;
22603;SDS011;11469;49.024;8.246;2023-04-01T02:20:06;9.25;;;0.70;;
22603;SDS011;11469;49.024;8.246;2023-04-01T02:22:37;2.53;;;0.43;;
22603;SDS011;11469;49.024;8.246;2023-04-01T02:25:18;2.17;;;0.40;;
22603;SDS011;11469;49.024;8.246;2023-04-01T02:27:46;4.25;;;0.63;;
22603;SDS011;11469;49.024;8.246;2023-04-01T02:30:12;4.10;;;0.60;;
22603;SDS011;11469;49.024;8.246;2023-04-01T02:32:40;1.50;;;0.40;;
22603;SDS011;11469;49.024;8.246;2023-04-01T02:35:07;3.53;;;0.50;;
22603;SDS011;11469;49.024;8.246;2023-04-01T02:37:35;1.27;;;0.45;;
22603;SDS011;11469;49.024;8.246;2023-04-01T02:40:03;2.20;;;0.47;;
22603;SDS011;11469;49.024;8.246;2023-04-01T02:42:31;2.25;;;0.38;;
22603;SDS011;11469;49.024;8.246;2023-04-01T02:44:57;1.92;;;0.40;;
22603;SDS011;11469;49.024;8.246;2023-04-01T02:47:22;1.55;;;0.35;;
22603;SDS011;11469;49.024;8.246;2023-04-01T02:49:48;1.02;;;0.40;;
22603;SDS011;11469;49.024;8.246;2023-04-01T02:52:13;4.70;;;0.50;;
22603;SDS011;11469;49.024;8.246;2023-04-01T02:54:39;6.07;;;0.55;;
22603;SDS011;11469;49.024;8.246;2023-04-01T02:57:04;1.55;;;0.17;;
22603;SDS011;11469;49.024;8.246;2023-04-01T02:59:30;2.17;;;0.30;;
22603;SDS011;11469;49.024;8.246;2023-04-01T03:01:55;1.60;;;0.30;;
22603;SDS011;11469;49.024;8.246;2023-04-01T03:04:20;0.88;;;0.25;;
22603;SDS011;11469;49.024;8.246;2023-04-01T03:06:46;1.67;;;0.52;;
22603;SDS011;11469;49.024;8.246;2023-04-01T03:09:11;0.57;;;0.30;;
22603;SDS011;11469;49.024;8.246;2023-04-01T03:11:36;3.05;;;0.40;;
22603;SDS011;11469;49.024;8.246;2023-04-01T03:14:02;1.73;;;0.30;;
22603;SDS011;11469;49.024;8.246;2023-04-01T03:16:27;2.65;;;0.45;;
22603;SDS011;11469;49.024;8.246;2023-04-01T03:18:53;2.22;;;0.30;;
22603;SDS011;11469;49.024;8.246;2023-04-01T03:21:21;1.98;;;0.47;;
22603;SDS011;11469;49.024;8.246;2023-04-01T03:23:48;5.20;;;0.60;;
22603;SDS011;11469;49.024;8.246;2023-04-01T03:26:14;2.10;;;0.40;;
22603;SDS011;11469;49.024;8.246;2023-04-01T03:28:40;3.10;;;0.38;;
22603;SDS011;11469;49.024;8.246;2023-04-01T03:31:06;2.20;;;0.47;;
22603;SDS011;11469;49.024;8.246;2023-04-01T03:33:32;2.08;;;0.28;;
22603;SDS011;11469;49.024;8.246;2023-04-01T03:35:57;4.47;;;0.40;;
22603;SDS011;11469;49.024;8.246;2023-04-01T03:38:23;3.08;;;0.30;;
22603;SDS011;11469;49.024;8.246;2023-04-01T03:40:48;6.22;;;0.68;;
22603;SDS011;11469;49.024;8.246;2023-04-01T03:43:14;1.80;;;0.38;;
22603;SDS011;11469;49.024;8.246;2023-04-01T03:45:45;3.35;;;0.57;;
22603;SDS011;11469;49.024;8.246;2023-04-01T03:48:14;6.05;;;0.70;;
22603;SDS011;11469;49.024;8.246;2023-04-01T03:50:40;2.72;;;0.50;;
22603;SDS011;11469;49.024;8.246;2023-04-01T03:53:06;4.63;;;0.60;;
22603;SDS011;11469;49.024;8.246;2023-04-01T03:55:32;3.88;;;0.50;;
22603;SDS011;11469;49.024;8.246;2023-04-01T03:57:57;7.30;;;0.85;;
22603;SDS011;11469;49.024;8.246;2023-04-01T04:00:23;2.58;;;0.50;;
22603;SDS011;11469;49.024;8.246;2023-04-01T04:02:48;2.22;;;0.52;;
22603;SDS011;11469;49.024;8.246;2023-04-01T04:05:13;5.28;;;0.57;;
22603;SDS011;11469;49.024;8.246;2023-04-01T04:07:39;3.92;;;0.63;;
22603;SDS011;11469;49.024;8.246;2023-04-01T04:10:04;2.58;;;0.68;;
22603;SDS011;11469;49.024;8.246;2023-04-01T04:12:31;10.32;;;1.20;;
22603;SDS011;11469;49.024;8.246;2023-04-01T04:14:56;7.38;;;0.90;;
22603;SDS011;11469;49.024;8.246;2023-04-01T04:17:21;9.10;;;0.77;;
22603;SDS011;11469;49.024;8.246;2023-04-01T04:19:47;4.47;;;0.80;;
22603;SDS011;11469;49.024;8.246;2023-04-01T04:22:12;14.70;;;1.02;;
22603;SDS011;11469;49.024;8.246;2023-04-01T04:24:38;7.22;;;0.90;;
22603;SDS011;11469;49.024;8.246;2023-04-01T04:27:03;5.07;;;0.77;;
22603;SDS011;11469;49.024;8.246;2023-04-01T04:29:29;4.88;;;0.90;;
22603;SDS011;11469;49.024;8.246;2023-04-01T04:31:54;5.97;;;1.10;;
22603;SDS011;11469;49.024;8.246;2023-04-01T04:34:20;5.85;;;1.15;;
22603;SDS011;11469;49.024;8.246;2023-04-01T04:36:47;7.32;;;1.00;;
22603;SDS011;11469;49.024;8.246;2023-04-01T04:39:13;8.52;;;1.10;;
22603;SDS011;11469;49.024;8.246;2023-04-01T04:41:38;5.68;;;1.23;;
22603;SDS011;11469;49.024;8.246;2023-04-01T04:44:04;12.35;;;1.67;;
22603;SDS011;11469;49.024;8.246;2023-04-01T04:46:30;6.20;;;1.05;;
22603;SDS011;11469;49.024;8.246;2023-04-01T04:48:56;7.35;;;1.00;;
22603;SDS011;11469;49.024;8.246;2023-04-01T04:51:21;12.20;;;1.77;;
22603;SDS011;11469;49.024;8.246;2023-04-01T04:53:47;10.40;;;1.48;;
22603;SDS011;11469;49.024;8.246;2023-04-01T04:56:18;8.15;;;1.60;;
22603;SDS011;11469;49.024;8.246;2023-04-01T04:58:45;9.07;;;1.23;;
22603;SDS011;11469;49.024;8.246;2023-04-01T05:01:11;12.60;;;1.75;;
22603;SDS011;11469;49.024;8.246;2023-04-01T05:03:38;7.40;;;1.30;;
22603;SDS011;11469;49.024;8.246;2023-04-01T05:06:05;9.40;;;1.50;;
22603;SDS011;11469;49.024;8.246;2023-04-01T05:08:32;9.43;;;1.65;;
22603;SDS011;11469;49.024;8.246;2023-04-01T05:11:00;10.38;;;2.15;;
22603;SDS011;11469;49.024;8.246;2023-04-01T05:13:27;6.38;;;1.17;;
22603;SDS011;11469;49.024;8.246;2023-04-01T05:15:52;3.83;;;1.00;;
22603;SDS011;11469;49.024;8.246;2023-04-01T05:18:18;8.75;;;1.02;;
22603;SDS011;11469;49.024;8.246;2023-04-01T05:20:48;9.18;;;1.27;;
22603;SDS011;11469;49.024;8.246;2023-04-01T05:23:15;6.90;;;1.52;;
22603;SDS011;11469;49.024;8.246;2023-04-01T05:25:40;5.28;;;1.00;;
22603;SDS011;11469;49.024;8.246;2023-04-01T05:28:06;7.60;;;1.20;;
22603;SDS011;11469;49.024;8.246;2023-04-01T05:30:31;6.85;;;1.00;;
22603;SDS011;11469;49.024;8.246;2023-04-01T05:32:57;2.75;;;0.60;;
22603;SDS011;11469;49.024;8.246;2023-04-01T05:35:22;5.15;;;1.08;;
22603;SDS011;11469;49.024;8.246;2023-04-01T05:37:48;5.78;;;0.70;;
22603;SDS011;11469;49.024;8.246;2023-04-01T05:40:13;3.70;;;0.75;;
22603;SDS011;11469;49.024;8.246;2023-04-01T05:42:39;6.82;;;0.85;;
22603;SDS011;11469;49.024;8.246;2023-04-01T05:45:05;3.90;;;0.80;;
22603;SDS011;11469;49.024;8.246;2023-04-01T05:47:31;2.60;;;0.63;;
22603;SDS011;11469;49.024;8.246;2023-04-01T05:49:56;5.03;;;0.73;;
22603;SDS011;11469;49.024;8.246;2023-04-01T05:52:22;2.90;;;0.50;;
22603;SDS011;11469;49.024;8.246;2023-04-01T05:54:47;3.55;;;0.50;;
22603;SDS011;11469;49.024;8.246;2023-04-01T05:57:12;2.45;;;0.47;;
22603;SDS011;11469;49.024;8.246;2023-04-01T05:59:38;5.65;;;0.88;;
22603;SDS011;11469;49.024;8.246;2023-04-01T06:02:03;2.75;;;1.08;;
22603;SDS011;11469;49.024;8.246;2023-04-01T06:04:32;2.58;;;0.60;;
22603;SDS011;11469;49.024;8.246;2023-04-01T06:07:05;5.55;;;0.77;;
22603;SDS011;11469;49.024;8.246;2023-04-01T06:09:36;5.78;;;1.00;;
22603;SDS011;11469;49.024;8.246;2023-04-01T06:36:16;6.47;;;1.08;;
22603;SDS011;11469;49.024;8.246;2023-04-01T06:39:25;8.10;;;1.10;;
22603;SDS011;11469;49.024;8.246;2023-04-01T06:44:46;8.18;;;1.10;;
22603;SDS011;11469;49.024;8.246;2023-04-01T06:52:58;6.55;;;0.80;;
22603;SDS011;11469;49.024;8.246;2023-04-01T06:55:53;4.63;;;0.73;;
22603;SDS011;11469;49.024;8.246;2023-04-01T06:58:37;8.48;;;1.33;;
22603;SDS011;11469;49.024;8.246;2023-04-01T07:01:08;6.70;;;0.98;;
22603;SDS011;11469;49.024;8.246;2023-04-01T07:03:39;5.00;;;1.05;;
22603;SDS011;11469;49.024;8.246;2023-04-01T07:06:30;6.38;;;1.25;;
22603;SDS011;11469;49.024;8.246;2023-04-01T07:09:02;5.07;;;0.93;;
22603;SDS011;11469;49.024;8.246;2023-04-01T07:11:33;7.75;;;1.20;;
22603;SDS011;11469;49.024;8.246;2023-04-01T07:14:02;7.93;;;1.08;;
22603;SDS011;11469;49.024;8.246;2023-04-01T07:16:48;9.00;;;2.70;;
22603;SDS011;11469;49.024;8.246;2023-04-01T07:24:50;11.32;;;1.95;;
22603;SDS011;11469;49.024;8.246;2023-04-01T07:27:17;7.70;;;0.93;;
22603;SDS011;11469;49.024;8.246;2023-04-01T07:29:43;7.03;;;1.30;;
22603;SDS011;11469;49.024;8.246;2023-04-01T07:50:27;9.55;;;1.48;;
22603;SDS011;11469;49.024;8.246;2023-04-01T08:14:46;8.25;;;1.75;;
22603;SDS011;11469;49.024;8.246;2023-04-01T08:17:35;16.45;;;3.90;;
22603;SDS011;11469;49.024;8.246;2023-04-01T08:22:51;7.68;;;3.33;;
22603;SDS011;11469;49.024;8.246;2023-04-01T08:25:26;8.80;;;2.67;;
22603;SDS011;11469;49.024;8.246;2023-04-01T08:28:04;9.40;;;2.28;;
22603;SDS011;11469;49.024;8.246;2023-04-01T08:30:41;14.65;;;3.28;;
22603;SDS011;11469;49.024;8.246;2023-04-01T08:33:19;11.25;;;3.05;;
22603;SDS011;11469;49.024;8.246;2023-04-01T08:47:20;8.20;;;1.50;;
22603;SDS011;11469;49.024;8.246;2023-04-01T08:55:46;8.05;;;2.08;;
22603;SDS011;11469;49.024;8.246;2023-04-01T09:01:14;5.88;;;1.00;;
22603;SDS011;11469;49.024;8.246;2023-04-01T09:04:03;4.22;;;0.95;;
22603;SDS011;11469;49.024;8.246;2023-04-01T09:06:33;4.93;;;1.02;;
22603;SDS011;11469;49.024;8.246;2023-04-01T09:28:28;11.45;;;1.40;;
22603;SDS011;11469;49.024;8.246;2023-04-01T09:44:56;7.53;;;1.40;;
22603;SDS011;11469;49.024;8.246;2023-04-01T09:53:07;3.80;;;0.93;;
22603;SDS011;11469;49.024;8.246;2023-04-01T10:01:45;3.20;;;1.15;;
22603;SDS011;11469;49.024;8.246;2023-04-01T10:13:12;2.63;;;0.85;;
22603;SDS011;11469;49.024;8.246;2023-04-01T10:35:28;8.18;;;3.25;;
22603;SDS011;11469;49.024;8.246;2023-04-01T10:37:59;8.98;;;1.20;;
22603;SDS011;11469;49.024;8.246;2023-04-01T10:56:59;4.22;;;0.90;;
22603;SDS011;11469;49.024;8.246;2023-04-01T10:59:32;3.55;;;0.93;;
22603;SDS011;11469;49.024;8.246;2023-04-01T11:24:26;2.88;;;0.73;;
22603;SDS011;11469;49.024;8.246;2023-04-01T11:27:20;3.33;;;1.20;;
22603;SDS011;11469;49.024;8.246;2023-04-01T11:41:26;3.87;;;1.30;;
22603;SDS011;11469;49.024;8.246;2023-04-01T12:05:54;1.80;;;0.77;;
22603;SDS011;11469;49.024;8.246;2023-04-01T12:11:39;2.63;;;0.80;;
22603;SDS011;11469;49.024;8.246;2023-04-01T12:14:14;1.83;;;0.80;;
22603;SDS011;11469;49.024;8.246;2023-04-01T12:23:09;1.60;;;0.90;;
22603;SDS011;11469;49.024;8.246;2023-04-01T12:28:36;9.13;;;2.78;;
22603;SDS011;11469;49.024;8.246;2023-04-01T12:34:28;5.45;;;2.22;;
22603;SDS011;11469;49.024;8.246;2023-04-01T12:56:42;4.85;;;2.00;;
22603;SDS011;11469;49.024;8.246;2023-04-01T13:07:53;1.67;;;0.82;;
22603;SDS011;11469;49.024;8.246;2023-04-01T13:30:02;3.50;;;0.77;;
22603;SDS011;11469;49.024;8.246;2023-04-01T13:32:29;1.65;;;0.70;;
22603;SDS011;11469;49.024;8.246;2023-04-01T13:35:13;1.80;;;0.45;;
22603;SDS011;11469;49.024;8.246;2023-04-01T13:43:47;4.22;;;0.93;;
22603;SDS011;11469;49.024;8.246;2023-04-01T14:10:31;1.55;;;0.70;;
22603;SDS011;11469;49.024;8.246;2023-04-01T14:13:23;2.13;;;0.80;;
22603;SDS011;11469;49.024;8.246;2023-04-01T14:18:52;6.00;;;1.05;;
22603;SDS011;11469;49.024;8.246;2023-04-01T14:21:40;2.97;;;0.75;;
22603;SDS011;11469;49.024;8.246;2023-04-01T14:30:16;3.35;;;0.90;;
22603;SDS011;11469;49.024;8.246;2023-04-01T14:38:22;1.52;;;0.75;;
22603;SDS011;11469;49.024;8.246;2023-04-01T14:52:03;2.67;;;1.23;;
22603;SDS011;11469;49.024;8.246;2023-04-01T14:54:36;3.22;;;1.50;;
22603;SDS011;11469;49.024;8.246;2023-04-01T14:57:09;6.10;;;3.28;;
22603;SDS011;11469;49.024;8.246;2023-04-01T14:59:39;2.58;;;1.63;;
22603;SDS011;11469;49.024;8.246;2023-04-01T15:08:00;11.70;;;2.88;;
22603;SDS011;11469;49.024;8.246;2023-04-01T15:15:56;5.80;;;2.50;;
22603;SDS011;11469;49.024;8.246;2023-04-01T15:18:37;4.65;;;2.38;;
22603;SDS011;11469;49.024;8.246;2023-04-01T15:21:13;5.40;;;2.67;;
22603;SDS011;11469;49.024;8.246;2023-04-01T15:29:24;5.88;;;2.13;;
22603;SDS011;11469;49.024;8.246;2023-04-01T15:32:02;7.57;;;3.40;;
22603;SDS011;11469;49.024;8.246;2023-04-01T15:44:55;5.07;;;1.98;;
22603;SDS011;11469;49.024;8.246;2023-04-01T15:47:30;2.75;;;1.10;;
22603;SDS011;11469;49.024;8.246;2023-04-01T16:03:57;4.53;;;1.67;;
22603;SDS011;11469;49.024;8.246;2023-04-01T16:09:21;6.70;;;2.80;;
22603;SDS011;11469;49.024;8.246;2023-04-01T16:12:00;8.90;;;4.25;;
22603;SDS011;11469;49.024;8.246;2023-04-01T16:20:02;15.23;;;4.90;;
22603;SDS011;11469;49.024;8.246;2023-04-01T16:22:49;16.23;;;6.32;;
22603;SDS011;11469;49.024;8.246;2023-04-01T16:25:29;16.02;;;6.38;;
22603;SDS011;11469;49.024;8.246;2023-04-01T16:33:24;30.80;;;14.90;;
22603;SDS011;11469;49.024;8.246;2023-04-01T16:36:08;48.92;;;27.05;;
22603;SDS011;11469;49.024;8.246;2023-04-01T16:44:27;28.20;;;13.95;;
22603;SDS011;11469;49.024;8.246;2023-04-01T16:46:57;17.85;;;3.08;;
22603;SDS011;11469;49.024;8.246;2023-04-01T16:49:50;11.82;;;4.95;;
22603;SDS011;11469;49.024;8.246;2023-04-01T16:52:34;36.35;;;13.32;;
22603;SDS011;11469;49.024;8.246;2023-04-01T16:55:18;17.77;;;3.88;;
22603;SDS011;11469;49.024;8.246;2023-04-01T16:57:51;11.57;;;4.82;;
22603;SDS011;11469;49.024;8.246;2023-04-01T17:05:43;4.78;;;1.33;;
22603;SDS011;11469;49.024;8.246;2023-04-01T17:08:34;4.93;;;1.60;;
22603;SDS011;11469;49.024;8.246;2023-04-01T17:16:39;4.43;;;2.25;;
22603;SDS011;11469;49.024;8.246;2023-04-01T17:24:37;1.95;;;0.65;;
22603;SDS011;11469;49.024;8.246;2023-04-01T17:35:35;3.08;;;0.90;;
22603;SDS011;11469;49.024;8.246;2023-04-01T17:38:39;4.68;;;2.70;;
22603;SDS011;11469;49.024;8.246;2023-04-01T17:41:30;5.40;;;1.63;;
22603;SDS011;11469;49.024;8.246;2023-04-01T17:52:46;7.75;;;2.22;;
22603;SDS011;11469;49.024;8.246;2023-04-01T17:58:03;10.60;;;4.18;;
22603;SDS011;11469;49.024;8.246;2023-04-01T18:01:14;6.35;;;2.85;;
22603;SDS011;11469;49.024;8.246;2023-04-01T18:06:42;6.45;;;1.73;;
22603;SDS011;11469;49.024;8.246;2023-04-01T18:12:04;11.52;;;3.10;;
22603;SDS011;11469;49.024;8.246;2023-04-01T18:15:15;13.20;;;4.32;;
22603;SDS011;11469;49.024;8.246;2023-04-01T18:17:45;12.50;;;3.10;;
22603;SDS011;11469;49.024;8.246;2023-04-01T18:23:53;12.15;;;4.95;;
22603;SDS011;11469;49.024;8.246;2023-04-01T18:26:24;13.23;;;4.70;;
22603;SDS011;11469;49.024;8.246;2023-04-01T18:28:56;8.55;;;4.10;;
22603;SDS011;11469;49.024;8.246;2023-04-01T18:31:37;9.52;;;3.35;;
22603;SDS011;11469;49.024;8.246;2023-04-01T18:37:19;6.03;;;3.00;;
22603;SDS011;11469;49.024;8.246;2023-04-01T18:39:52;7.80;;;2.65;;
22603;SDS011;11469;49.024;8.246;2023-04-01T18:45:17;5.25;;;1.70;;
22603;SDS011;11469;49.024;8.246;2023-04-01T18:47:55;3.97;;;1.65;;
22603;SDS011;11469;49.024;8.246;2023-04-01T18:50:48;6.93;;;1.92;;
22603;SDS011;11469;49.024;8.246;2023-04-01T18:59:10;4.70;;;1.50;;
22603;SDS011;11469;49.024;8.246;2023-04-01T19:02:02;3.92;;;1.40;;
22603;SDS011;11469;49.024;8.246;2023-04-01T19:04:45;9.38;;;3.70;;
22603;SDS011;11469;49.024;8.246;2023-04-01T19:08:12;6.90;;;2.45;;
22603;SDS011;11469;49.024;8.246;2023-04-01T19:10:31;5.43;;;1.50;;
22603;SDS011;11469;49.024;8.246;2023-04-01T19:13:19;2.92;;;1.50;;
22603;SDS011;11469;49.024;8.246;2023-04-01T19:15:57;4.18;;;1.88;;
22603;SDS011;11469;49.024;8.246;2023-04-01T19:21:29;5.40;;;1.67;;
22603;SDS011;11469;49.024;8.246;2023-04-01T19:27:03;7.82;;;2.75;;
22603;SDS011;11469;49.024;8.246;2023-04-01T19:32:37;7.35;;;2.70;;
22603;SDS011;11469;49.024;8.246;2023-04-01T19:38:04;7.20;;;3.25;;
22603;SDS011;11469;49.024;8.246;2023-04-01T19:40:45;5.35;;;2.55;;
22603;SDS011;11469;49.024;8.246;2023-04-01T19:43:30;11.40;;;4.57;;
22603;SDS011;11469;49.024;8.246;2023-04-01T19:56:23;8.30;;;2.85;;
22603;SDS011;11469;49.024;8.246;2023-04-01T19:59:06;27.27;;;14.68;;
22603;SDS011;11469;49.024;8.246;2023-04-01T20:04:13;6.60;;;1.75;;
22603;SDS011;11469;49.024;8.246;2023-04-01T20:17:58;5.95;;;1.33;;
22603;SDS011;11469;49.024;8.246;2023-04-01T20:20:28;3.78;;;1.30;;
22603;SDS011;11469;49.024;8.246;2023-04-01T20:25:57;7.97;;;2.50;;
22603;SDS011;11469;49.024;8.246;2023-04-01T20:28:32;7.82;;;2.60;;
22603;SDS011;11469;49.024;8.246;2023-04-01T20:39:34;17.00;;;2.30;;
22603;SDS011;11469;49.024;8.246;2023-04-01T20:53:28;6.55;;;1.23;;
22603;SDS011;11469;49.024;8.246;2023-04-01T21:04:21;4.95;;;0.88;;
22603;SDS011;11469;49.024;8.246;2023-04-01T21:12:25;2.70;;;1.00;;
22603;SDS011;11469;49.024;8.246;2023-04-01T21:20:46;5.45;;;1.40;;
22603;SDS011;11469;49.024;8.246;2023-04-01T21:23:32;6.30;;;1.02;;
22603;SDS011;11469;49.024;8.246;2023-04-01T21:26:18;4.82;;;1.20;;
22603;SDS011;11469;49.024;8.246;2023-04-01T21:37:32;5.15;;;1.00;;
22603;SDS011;11469;49.024;8.246;2023-04-01T22:05:45;4.57;;;1.25;;
22603;SDS011;11469;49.024;8.246;2023-04-01T22:10:51;2.78;;;1.10;;
22603;SDS011;11469;49.024;8.246;2023-04-01T22:19:33;15.30;;;1.35;;
22603;SDS011;11469;49.024;8.246;2023-04-01T22:30:10;4.47;;;0.88;;
22603;SDS011;11469;49.024;8.246;2023-04-01T22:37:58;3.38;;;1.48;;
22603;SDS011;11469;49.024;8.246;2023-04-01T22:40:48;4.40;;;1.15;;
22603;SDS011;11469;49.024;8.246;2023-04-01T22:43:25;1.90;;;1.15;;
22603;SDS011;11469;49.024;8.246;2023-04-01T22:48:52;4.03;;;1.40;;
22603;SDS011;11469;49.024;8.246;2023-04-01T22:51:29;5.22;;;1.58;;
22603;SDS011;11469;49.024;8.246;2023-04-01T22:56:36;4.55;;;1.52;;
22603;SDS011;11469;49.024;8.246;2023-04-01T22:59:19;3.60;;;1.25;;
22603;SDS011;11469;49.024;8.246;2023-04-01T23:01:52;3.72;;;1.85;;
22603;SDS011;11469;49.024;8.246;2023-04-01T23:04:24;5.25;;;1.50;;
22603;SDS011;11469;49.024;8.246;2023-04-01T23:06:57;2.67;;;1.05;;
22603;SDS011;11469;49.024;8.246;2023-04-01T23:09:26;3.05;;;1.30;;
22603;SDS011;11469;49.024;8.246;2023-04-01T23:14:31;5.35;;;1.05;;
22603;SDS011;11469;49.024;8.246;2023-04-01T23:19:55;6.20;;;2.40;;
22603;SDS011;11469;49.024;8.246;2023-04-01T23:25:12;3.40;;;1.83;;
22603;SDS011;11469;49.024;8.246;2023-04-01T23:27:44;6.15;;;2.67;;
22603;SDS011;11469;49.024;8.246;2023-04-01T23:33:16;2.20;;;1.13;;
22603;SDS011;11469;49.024;8.246;2023-04-01T23:35:48;4.32;;;1.25;;
22603;SDS011;11469;49.024;8.246;2023-04-01T23:38:16;4.30;;;1.90;;
22603;SDS011;11469;49.024;8.246;2023-04-01T23:40:42;2.03;;;1.00;;
22603;SDS011;11469;49.024;8.246;2023-04-01T23:43:15;4.57;;;1.02;;
22603;SDS011;11469;49.024;8.246;2023-04-01T23:45:47;3.50;;;1.52;;
22603;SDS011;11469;49.024;8.246;2023-04-01T23:48:13;3.55;;;1.40;;
22603;SDS011;11469;49.024;8.246;2023-04-01T23:50:41;5.03;;;1.27;;
22603;SDS011;11469;49.024;8.246;2023-04-01T23:53:17;2.40;;;1.27;;
22603;SDS011;11469;49.024;8.246;2023-04-01T23:55:45;4.18;;;1.25;;
